Time;durP1;ratioP1;P1;durP2;ratioP2;P2;SDS_P1;SDS_P2;PMS_P1;PMS_P2;Temp;Humidity;BMP_temperature;BMP_pressure;BME280_temperature;BME280_humidity;BME280_pressure;Samples;Min_cycle;Max_cycle;Signal;HPM_P1;HPM_P2
2021/04/12 00:00:24;;;;;;;;;;;;;;;-142.75;66.28;79543.78;4991165;28;19937;-72
2021/04/12 00:03:15;;;;;;;;;;;;;;;-142.75;66.19;79551.69;5005398;28;19922;-72
2021/04/12 00:06:04;;;;;;;;;;;;;;;-142.75;66.38;79547.72;4990251;28;19913;-73
2021/04/12 00:08:32;;;;;;;;;;;;;;;-142.75;66.56;79551.69;4990116;28;19914;-73
2021/04/12 00:11:03;;;;;;;;;;;;;;;-142.75;66.61;79555.63;4986286;28;19914;-73
2021/04/12 00:13:55;;;;;;;;;;;;;;;-142.75;66.79;79563.50;4990158;28;19967;-73
2021/04/12 00:16:39;;;;;;;;;;;;;;;-142.75;67.05;79559.56;4991249;28;19917;-72
2021/04/12 00:19:23;;;;;;;;;;;;;;;-142.75;67.22;79539.84;5008514;28;20380;-73
2021/04/12 00:21:48;;;;;;;;;;;;;;;-142.75;67.29;79524.09;4990420;28;20372;-73
2021/04/12 00:24:17;;;;;;;;;;;;;;;-142.75;67.17;79480.75;4993571;28;20016;-73
2021/04/12 00:26:54;;;;;;;;;;;;;;;-142.75;66.90;79463.03;4994765;28;20291;-73
2021/04/12 00:29:23;;;;;;;;;;;;;;;-142.75;66.04;79465.00;4994811;28;19914;-73
2021/04/12 00:31:58;;;;;;;;;;;;;;;-142.75;66.51;79437.41;4994439;28;19914;-73
2021/04/12 00:34:26;;;;;;;;;;;;;;;-142.75;66.30;79431.50;4993047;28;19922;-75
2021/04/12 00:36:54;;;;;;;;;;;;;;;-142.75;65.98;79417.72;4992326;28;20391;-75
2021/04/12 00:39:35;;;;;;;;;;;;;;;-142.75;65.43;79435.44;4993164;28;19920;-75
2021/04/12 00:42:07;;;;;;;;;;;;;;;-142.75;66.05;79449.25;4991224;28;20063;-75
2021/04/12 00:44:51;;;;;;;;;;;;;;;-142.75;66.42;79439.38;5007214;28;19918;-72
2021/04/12 00:47:38;;;;;;;;;;;;;;;-142.75;66.62;79449.25;4998251;28;19988;-73
2021/04/12 00:50:06;;;;;;;;;;;;;;;-142.75;66.58;79439.38;5012686;28;20386;-72
2021/04/12 00:52:34;;;;;;;;;;;;;;;-142.75;66.57;79453.19;5013614;28;20360;-73
2021/04/12 00:55:15;;;;;;;;;;;;;;;-142.75;66.48;79476.81;5013948;28;19996;-72
2021/04/12 00:57:44;;;;;;;;;;;;;;;-142.75;66.73;79496.50;4998717;28;20291;-73
2021/04/12 01:00:09;;;;;;;;;;;;;;;-142.75;66.75;79512.28;4992708;28;20368;-72
2021/04/12 01:02:47;;;;;;;;;;;;;;;-142.75;66.78;79528.03;5008140;28;19976;-72
2021/04/12 01:05:27;;;;;;;;;;;;;;;-142.75;66.64;79543.78;5006419;28;19921;-72
2021/04/12 01:07:55;;;;;;;;;;;;;;;-142.75;66.67;79557.59;4993906;28;19913;-73
2021/04/12 01:10:23;;;;;;;;;;;;;;;-142.75;67.34;79561.53;4993882;28;19953;-72
2021/04/12 01:12:48;;;;;;;;;;;;;;;-142.75;67.36;79569.41;4993882;28;19937;-72
2021/04/12 01:15:16;;;;;;;;;;;;;;;-142.75;67.49;79575.31;4993336;28;19913;-70
2021/04/12 01:17:50;;;;;;;;;;;;;;;-142.75;67.33;79587.13;5008401;28;19928;-72
2021/04/12 01:20:31;;;;;;;;;;;;;;;-142.75;68.03;79583.19;5013234;28;19980;-73
2021/04/12 01:23:14;;;;;;;;;;;;;;;-142.75;68.27;79591.06;5028511;28;20398;-73
2021/04/12 01:25:52;;;;;;;;;;;;;;;-142.75;68.20;79587.13;5009378;28;19913;-73
2021/04/12 01:28:43;;;;;;;;;;;;;;;-142.75;68.23;79573.34;5008414;28;19913;-72
2021/04/12 01:31:27;;;;;;;;;;;;;;;-142.75;68.42;79561.53;5004478;28;20302;-73
2021/04/12 01:34:11;;;;;;;;;;;;;;;-142.75;68.53;79508.34;4999740;28;19917;-73
2021/04/12 01:36:42;;;;;;;;;;;;;;;-142.75;67.53;79445.28;5005990;28;19914;-73
2021/04/12 01:39:09;;;;;;;;;;;;;;;-142.75;67.01;79409.84;4993593;28;19917;-73
2021/04/12 01:41:42;;;;;;;;;;;;;;;-142.75;66.94;79388.16;4991892;28;20450;-75
2021/04/12 01:44:10;;;;;;;;;;;;;;;-142.75;67.20;79392.13;5001201;28;19968;-78
2021/04/12 01:46:41;;;;;;;;;;;;;;;-142.75;67.29;79401.97;5008185;28;19913;-78
2021/04/12 01:49:10;;;;;;;;;;;;;;;-142.75;67.27;79398.03;5010060;28;20015;-78
2021/04/12 01:51:35;;;;;;;;;;;;;;;-142.75;67.06;79401.97;5001956;28;19999;-78
2021/04/12 01:54:06;;;;;;;;;;;;;;;-142.75;66.98;79394.09;5016910;28;19961;-76
2021/04/12 01:56:40;;;;;;;;;;;;;;;-142.75;67.30;79398.03;5011199;28;19952;-76
2021/04/12 01:59:17;;;;;;;;;;;;;;;-142.75;67.30;79394.09;5009913;28;19918;-76
2021/04/12 02:01:45;;;;;;;;;;;;;;;-142.75;67.49;79405.91;4998410;28;20016;-76
2021/04/12 02:04:30;;;;;;;;;;;;;;;-142.75;67.32;79398.03;5023465;28;19964;-76
2021/04/12 02:06:55;;;;;;;;;;;;;;;-142.75;67.49;79396.06;5008570;28;19917;-76
2021/04/12 02:09:28;;;;;;;;;;;;;;;-142.75;67.19;79405.91;5012876;28;19920;-75
2021/04/12 02:11:59;;;;;;;;;;;;;;;-142.75;67.05;79392.13;4997726;28;19922;-75
2021/04/12 02:14:39;;;;;;;;;;;;;;;-142.75;66.92;79417.72;4992599;28;19964;-75
2021/04/12 02:17:04;;;;;;;;;;;;;;;-142.75;67.06;79443.31;4993642;28;20450;-76
2021/04/12 02:19:49;;;;;;;;;;;;;;;-142.75;67.33;79461.06;5020556;28;19992;-76
2021/04/12 02:22:32;;;;;;;;;;;;;;;-142.75;67.56;79468.94;5010579;28;19917;-76
2021/04/12 02:25:05;;;;;;;;;;;;;;;-142.75;67.93;79488.63;5023507;28;20008;-76
2021/04/12 02:27:36;;;;;;;;;;;;;;;-142.75;68.15;79490.59;4991463;28;19917;-76
2021/04/12 02:30:07;;;;;;;;;;;;;;;-142.75;67.98;79508.34;4992855;28;19917;-75
2021/04/12 02:32:51;;;;;;;;;;;;;;;-142.75;67.97;79510.31;5007712;28;20399;-76
2021/04/12 02:35:26;;;;;;;;;;;;;;;-142.75;68.07;79528.03;4992492;28;19918;-76
2021/04/12 02:38:10;;;;;;;;;;;;;;;-142.75;68.24;79535.91;4992358;28;20441;-76
2021/04/12 02:40:54;;;;;;;;;;;;;;;-142.75;68.24;79543.78;4991313;28;19993;-76
2021/04/12 02:43:30;;;;;;;;;;;;;;;-142.75;68.24;79559.56;4996476;28;20331;-76
2021/04/12 02:46:02;;;;;;;;;;;;;;;-142.75;68.17;79565.47;4990988;28;19913;-75
2021/04/12 02:48:39;;;;;;;;;;;;;;;-142.75;68.40;79567.44;4990553;28;19972;-76
2021/04/12 02:51:14;;;;;;;;;;;;;;;-142.75;68.33;79573.34;4991956;28;19913;-75
2021/04/12 02:53:48;;;;;;;;;;;;;;;-142.75;68.58;79581.22;5003003;28;20003;-76
2021/04/12 02:56:32;;;;;;;;;;;;;;;-142.75;68.61;79583.19;5027000;28;19949;-76
2021/04/12 02:58:58;;;;;;;;;;;;;;;-142.75;68.64;79589.09;5007853;28;19957;-75
2021/04/12 03:01:49;;;;;;;;;;;;;;;-142.75;68.40;79593.03;4994366;28;19968;-75
2021/04/12 03:04:33;;;;;;;;;;;;;;;-142.75;68.53;79598.94;5002537;28;19999;-76
2021/04/12 03:07:12;;;;;;;;;;;;;;;-142.75;68.33;79612.75;4992504;28;19929;-75
2021/04/12 03:09:56;;;;;;;;;;;;;;;-142.75;68.46;79630.47;5003061;28;20322;-76
2021/04/12 03:12:48;;;;;;;;;;;;;;;-142.75;68.92;79630.47;4991717;28;19922;-76
2021/04/12 03:15:14;;;;;;;;;;;;;;;-142.75;68.86;79628.50;4991560;28;19913;-76
2021/04/12 03:17:48;;;;;;;;;;;;;;;-142.75;69.14;79626.53;4990467;28;19920;-76
2021/04/12 03:20:32;;;;;;;;;;;;;;;-142.75;69.22;79630.47;4991893;28;19964;-76
2021/04/12 03:23:06;;;;;;;;;;;;;;;-142.75;69.23;79630.47;4991708;28;19924;-75
2021/04/12 03:25:34;;;;;;;;;;;;;;;-142.75;69.38;79642.28;5005866;28;19920;-75
2021/04/12 03:28:17;;;;;;;;;;;;;;;-142.75;68.98;79650.16;4997307;28;19982;-75
2021/04/12 03:30:48;;;;;;;;;;;;;;;-142.75;69.45;79650.16;4991556;28;19913;-76
2021/04/12 03:33:23;;;;;;;;;;;;;;;-142.75;69.35;79654.13;4993166;28;20435;-75
2021/04/12 03:36:05;;;;;;;;;;;;;;;-142.75;69.33;79656.09;4991920;28;19993;-76
2021/04/12 03:38:36;;;;;;;;;;;;;;;-142.75;69.92;79658.06;4991037;28;19913;-75
2021/04/12 03:41:08;;;;;;;;;;;;;;;-142.75;69.72;79658.06;4998230;28;19973;-75
2021/04/12 03:43:45;;;;;;;;;;;;;;;-142.75;69.55;79663.97;5004846;28;19913;-76
2021/04/12 03:46:29;;;;;;;;;;;;;;;-142.75;69.73;79677.75;5011210;28;19917;-76
2021/04/12 03:49:03;;;;;;;;;;;;;;;-142.75;69.86;79675.78;5007618;28;19918;-75
2021/04/12 03:51:44;;;;;;;;;;;;;;;-142.75;69.72;79673.81;4989770;28;19996;-76
2021/04/12 03:54:09;;;;;;;;;;;;;;;-142.75;70.03;79669.88;4991551;28;19922;-76
2021/04/12 03:56:53;;;;;;;;;;;;;;;-142.75;69.75;79669.88;5009693;28;19972;-76
2021/04/12 03:59:23;;;;;;;;;;;;;;;-142.75;69.75;79683.66;5003713;28;19924;-76
2021/04/12 04:02:06;;;;;;;;;;;;;;;-142.75;69.81;79687.59;4999153;28;19914;-76
2021/04/12 04:04:36;;;;;;;;;;;;;;;-142.75;69.81;79695.47;5011878;28;19909;-76
2021/04/12 04:07:01;;;;;;;;;;;;;;;-142.75;69.66;79705.34;5015076;28;20000;-76
2021/04/12 04:09:38;;;;;;;;;;;;;;;-142.75;69.54;79715.19;5011010;28;20008;-75
2021/04/12 04:12:06;;;;;;;;;;;;;;;-142.75;69.54;79709.28;5009638;28;19914;-76
2021/04/12 04:14:47;;;;;;;;;;;;;;;-142.75;69.48;79709.28;4995027;28;20402;-76
2021/04/12 04:17:32;;;;;;;;;;;;;;;-142.75;69.61;79707.31;5030695;28;20299;-74
2021/04/12 04:20:13;;;;;;;;;;;;;;;-142.75;69.87;79701.38;4994863;28;19924;-76
2021/04/12 04:22:41;;;;;;;;;;;;;;;-142.75;69.82;79701.38;4992523;28;19917;-75
2021/04/12 04:25:15;;;;;;;;;;;;;;;-142.75;70.13;79707.31;5014649;28;19922;-75
2021/04/12 04:27:53;;;;;;;;;;;;;;;-142.75;69.98;79715.19;4993454;28;19914;-76
2021/04/12 04:30:21;;;;;;;;;;;;;;;-142.75;69.82;79723.06;4998900;28;19920;-76
2021/04/12 04:33:04;;;;;;;;;;;;;;;-142.75;70.30;79721.09;5010779;28;20516;-76
2021/04/12 04:35:48;;;;;;;;;;;;;;;-142.75;70.52;79709.28;5008623;28;19913;-75
2021/04/12 04:38:32;;;;;;;;;;;;;;;-142.75;70.36;79705.34;4999369;28;19914;-76
2021/04/12 04:41:06;;;;;;;;;;;;;;;-142.75;70.49;79701.38;4994366;28;19980;-75
2021/04/12 04:43:34;;;;;;;;;;;;;;;-142.75;70.46;79701.38;4997614;28;20296;-75
2021/04/12 04:46:18;;;;;;;;;;;;;;;-142.75;70.49;79697.44;4998180;28;20291;-75
2021/04/12 04:48:57;;;;;;;;;;;;;;;-142.75;70.74;79697.44;4993292;28;19980;-75
2021/04/12 04:51:22;;;;;;;;;;;;;;;-142.75;70.77;79697.44;4994575;28;19945;-76
2021/04/12 04:53:47;;;;;;;;;;;;;;;-142.75;70.73;79701.38;5012617;28;20383;-76
2021/04/12 04:56:13;;;;;;;;;;;;;;;-142.75;70.75;79701.38;5005427;28;19928;-76
2021/04/12 04:58:41;;;;;;;;;;;;;;;-142.75;70.53;79707.31;5013465;28;19960;-76
2021/04/12 05:01:18;;;;;;;;;;;;;;;-142.75;70.52;79693.50;5021021;28;19921;-76
2021/04/12 05:03:47;;;;;;;;;;;;;;;-142.75;70.55;79689.56;5002115;28;19913;-75
2021/04/12 05:06:35;;;;;;;;;;;;;;;-142.75;70.32;79691.53;5012808;28;19914;-76
2021/04/12 05:09:19;;;;;;;;;;;;;;;-142.75;70.18;79697.44;5004596;28;19969;-76
2021/04/12 05:12:03;;;;;;;;;;;;;;;-142.75;70.30;79691.53;4991921;28;19996;-76
2021/04/12 05:14:43;;;;;;;;;;;;;;;-142.75;70.08;79687.59;5007345;28;19917;-76
2021/04/12 05:17:12;;;;;;;;;;;;;;;-142.75;70.06;79679.72;4995288;28;20004;-76
2021/04/12 05:19:55;;;;;;;;;;;;;;;-142.75;70.09;79669.88;4994090;28;19921;-76
2021/04/12 05:22:29;;;;;;;;;;;;;;;-142.75;70.25;79654.13;4994306;28;19918;-75
2021/04/12 05:24:57;;;;;;;;;;;;;;;-142.75;70.27;79638.34;5013634;28;19914;-76
2021/04/12 05:27:38;;;;;;;;;;;;;;;-142.75;70.25;79636.38;5013437;28;19913;-75
2021/04/12 05:30:06;;;;;;;;;;;;;;;-142.75;70.03;79632.44;4993828;28;19964;-76
2021/04/12 05:32:50;;;;;;;;;;;;;;;-142.75;70.09;79614.72;5012198;28;20291;-75
2021/04/12 05:35:21;;;;;;;;;;;;;;;-142.75;69.88;79581.22;4993834;28;19921;-76
2021/04/12 05:38:02;;;;;;;;;;;;;;;-142.75;69.57;79567.44;5007203;28;19925;-76
2021/04/12 05:40:40;;;;;;;;;;;;;;;-142.75;68.10;79518.19;5004624;28;19914;-75
2021/04/12 05:43:24;;;;;;;;;;;;;;;-142.75;66.27;79502.44;5006115;28;21318;-76
2021/04/12 05:45:52;;;;;;;;;;;;;;;-142.75;65.14;79478.78;5004782;28;20032;-75
2021/04/12 05:48:36;;;;;;;;;;;;;;;-142.75;64.50;79476.81;5002175;28;19973;-75
2021/04/12 05:51:13;;;;;;;;;;;;;;;-142.75;65.12;79526.06;5038194;28;19921;-76
2021/04/12 05:53:59;;;;;;;;;;;;;;;-142.75;65.93;79559.56;5024138;28;19967;-76
2021/04/12 05:56:24;;;;;;;;;;;;;;;-142.75;66.77;79563.50;5005371;28;19913;-77
2021/04/12 05:59:09;;;;;;;;;;;;;;;-142.75;67.24;79579.25;4999825;28;19913;-75
2021/04/12 06:01:53;;;;;;;;;;;;;;;-142.75;67.66;79587.13;5005650;28;19932;-79
2021/04/12 06:04:29;;;;;;;;;;;;;;;-142.75;67.70;79587.13;5028777;28;19915;-76
2021/04/12 06:07:04;;;;;;;;;;;;;;;-142.75;67.75;79587.13;5002737;28;19940;-75
2021/04/12 06:09:29;;;;;;;;;;;;;;;-142.75;67.96;79610.78;5003004;28;19918;-76
2021/04/12 06:12:13;;;;;;;;;;;;;;;-142.75;68.13;79642.28;5000656;28;19920;-76
2021/04/12 06:14:50;;;;;;;;;;;;;;;-142.75;68.56;79662.00;5007178;28;19914;-77
2021/04/12 06:17:18;;;;;;;;;;;;;;;-142.75;68.89;79677.75;5002616;28;19968;-77
2021/04/12 06:19:49;;;;;;;;;;;;;;;-142.75;68.76;79687.59;5006445;28;19917;-79
2021/04/12 06:22:33;;;;;;;;;;;;;;;-142.75;68.95;79689.56;5010496;28;19925;-79
2021/04/12 06:25:07;;;;;;;;;;;;;;;-142.75;69.00;79689.56;5009855;28;19921;-77
2021/04/12 06:27:51;;;;;;;;;;;;;;;-142.75;69.36;79697.44;5004843;28;19920;-77
2021/04/12 06:30:19;;;;;;;;;;;;;;;-142.75;69.41;79691.53;5005226;28;19929;-77
2021/04/12 06:32:44;;;;;;;;;;;;;;;-142.75;69.38;79695.47;5019995;28;19983;-77
2021/04/12 06:35:22;;;;;;;;;;;;;;;-142.75;69.39;79681.69;5022818;28;19914;-75
2021/04/12 06:38:18;;;;;;;;;;;;;;;-142.75;69.50;79671.84;5016732;28;20327;-77
2021/04/12 06:41:02;;;;;;;;;;;;;;;-142.75;69.66;79650.16;5020411;28;19964;-77
2021/04/12 06:43:39;;;;;;;;;;;;;;;-142.75;69.66;79630.47;5001634;28;19920;-78
2021/04/12 06:46:14;;;;;;;;;;;;;;;-142.75;69.70;79610.78;5018688;28;19913;-76
2021/04/12 06:48:57;;;;;;;;;;;;;;;-142.75;69.36;79602.88;4999762;28;20000;-77
2021/04/12 06:51:22;;;;;;;;;;;;;;;-142.75;69.40;79585.16;5014341;28;19937;-77
2021/04/12 06:53:53;;;;;;;;;;;;;;;-142.75;69.25;79577.28;5002553;28;20371;-77
2021/04/12 06:56:18;;;;;;;;;;;;;;;-142.75;69.10;79567.44;5011697;28;19920;-77
2021/04/12 06:59:02;;;;;;;;;;;;;;;-142.75;68.43;79579.25;4999737;28;19925;-77
2021/04/12 07:01:51;;;;;;;;;;;;;;;-142.75;68.26;79567.44;5012758;28;20432;-76
2021/04/12 07:04:34;;;;;;;;;;;;;;;-142.75;68.02;79563.50;4992633;28;20079;-76
2021/04/12 07:06:59;;;;;;;;;;;;;;;-142.75;67.39;79571.38;5011300;28;19914;-75
2021/04/12 07:09:32;;;;;;;;;;;;;;;-142.75;67.08;79606.84;5017953;28;20276;-77
2021/04/12 07:12:09;;;;;;;;;;;;;;;-142.75;67.19;79642.28;5001244;28;19913;-78
2021/04/12 07:14:43;;;;;;;;;;;;;;;-142.75;67.75;79673.81;5003521;28;19925;-78
2021/04/12 07:17:24;;;;;;;;;;;;;;;-142.75;68.23;79677.75;5019030;28;19921;-78
2021/04/12 07:19:52;;;;;;;;;;;;;;;-142.75;68.52;79695.47;5002259;28;19914;-79
2021/04/12 07:22:35;;;;;;;;;;;;;;;-142.75;68.72;79693.50;5002711;28;19924;-78
2021/04/12 07:25:00;;;;;;;;;;;;;;;-142.75;68.71;79669.88;5001499;28;19914;-77
2021/04/12 07:27:52;;;;;;;;;;;;;;;-142.75;68.89;79646.22;5015447;28;19964;-78
2021/04/12 07:30:27;;;;;;;;;;;;;;;-142.75;68.64;79644.25;5000061;28;19917;-77
2021/04/12 07:32:53;;;;;;;;;;;;;;;-142.75;68.73;79644.25;4996619;28;20009;-76
2021/04/12 07:35:24;;;;;;;;;;;;;;;-142.75;68.53;79606.84;5004264;28;20000;-80
2021/04/12 07:38:08;;;;;;;;;;;;;;;-142.75;68.67;79559.56;5018893;28;19926;-79
2021/04/12 07:40:52;;;;;;;;;;;;;;;-142.75;67.90;79516.22;4999018;28;19981;-77
2021/04/12 07:43:40;;;;;;;;;;;;;;;-142.75;67.43;79498.47;5031363;28;20299;-79
2021/04/12 07:46:27;;;;;;;;;;;;;;;-142.75;67.12;79478.78;4996169;28;20004;-76
2021/04/12 07:49:01;;;;;;;;;;;;;;;-142.75;66.76;79465.00;5000260;28;20355;-78
2021/04/12 07:51:45;;;;;;;;;;;;;;;-142.75;66.85;79441.34;5004501;28;19960;-78
2021/04/12 07:54:29;;;;;;;;;;;;;;;-142.75;66.46;79496.50;4997908;28;20015;-80
2021/04/12 07:57:13;;;;;;;;;;;;;;;-142.75;66.33;79518.19;5004286;28;19920;-78
2021/04/12 07:59:38;;;;;;;;;;;;;;;-142.75;66.15;79528.03;5007434;28;19950;-78
2021/04/12 08:02:20;;;;;;;;;;;;;;;-142.75;66.22;79553.63;5023645;28;19917;-78
2021/04/12 08:05:05;;;;;;;;;;;;;;;-142.75;67.05;79541.81;5005357;28;19929;-77
2021/04/12 08:07:32;;;;;;;;;;;;;;;-142.75;67.01;79516.22;5005683;28;19920;-78
2021/04/12 08:10:07;;;;;;;;;;;;;;;-142.75;67.35;79571.38;5019295;28;19921;-78
2021/04/12 08:12:51;;;;;;;;;;;;;;;-142.75;67.78;79555.63;5019740;28;19941;-77
2021/04/12 08:15:35;;;;;;;;;;;;;;;-142.75;67.59;79508.34;5021366;28;19917;-77
2021/04/12 08:18:00;;;;;;;;;;;;;;;-142.75;67.87;79472.88;5019704;28;19951;-77
2021/04/12 08:20:44;;;;;;;;;;;;;;;-142.75;67.21;79459.09;5021184;28;19922;-80
2021/04/12 08:23:28;;;;;;;;;;;;;;;-142.75;66.71;79488.63;5022252;28;19918;-78
2021/04/12 08:25:56;;;;;;;;;;;;;;;-142.75;65.32;79492.56;5007625;28;19917;-79
2021/04/12 08:28:45;;;;;;;;;;;;;;;-142.75;65.46;79510.31;5013384;28;19913;-80
2021/04/12 08:31:25;;;;;;;;;;;;;;;-142.75;66.15;79508.34;5003790;28;19917;-81
2021/04/12 08:34:22;;;;;;;;;;;;;;;-142.75;65.84;79559.56;5012727;28;19913;-80
2021/04/12 08:37:02;;;;;;;;;;;;;;;-142.75;66.58;79665.94;4990490;28;19957;-78
2021/04/12 08:39:31;;;;;;;;;;;;;;;-142.75;66.76;79713.22;5025320;28;19913;-80
2021/04/12 08:41:59;;;;;;;;;;;;;;;-142.75;67.26;79725.03;5025540;28;19936;-79
2021/04/12 08:44:43;;;;;;;;;;;;;;;-142.75;67.79;79764.44;5011229;28;19960;-79
2021/04/12 08:47:31;;;;;;;;;;;;;;;-142.75;68.34;79795.94;5010414;28;19921;-79
2021/04/12 08:50:02;;;;;;;;;;;;;;;-142.75;68.68;79813.69;5009795;28;20012;-80
2021/04/12 08:52:33;;;;;;;;;;;;;;;-142.75;68.92;79831.41;5027664;28;19951;-81
2021/04/12 08:55:19;;;;;;;;;;;;;;;-142.75;69.30;79839.28;5011384;28;19966;-81
2021/04/12 08:57:52;;;;;;;;;;;;;;;-142.75;69.54;79843.22;5009042;28;19937;-79
2021/04/12 09:00:35;;;;;;;;;;;;;;;-142.75;69.78;79835.34;5007810;28;19960;-78
2021/04/12 09:03:06;;;;;;;;;;;;;;;-142.75;69.65;79831.41;5007808;28;19925;-77
2021/04/12 09:05:52;;;;;;;;;;;;;;;-142.75;69.47;79823.53;5028608;28;20272;-78
2021/04/12 09:08:44;;;;;;;;;;;;;;;-142.75;69.52;79819.59;5003825;28;19917;-78
2021/04/12 09:11:18;;;;;;;;;;;;;;;-142.75;69.71;79815.66;5000086;28;19920;-78
2021/04/12 09:13:49;;;;;;;;;;;;;;;-142.75;69.32;79780.19;5007148;28;19915;-79
2021/04/12 09:16:39;;;;;;;;;;;;;;;-142.75;69.34;79768.38;5019152;28;20009;-78
2021/04/12 09:19:13;;;;;;;;;;;;;;;-142.75;68.68;79725.03;5005802;28;19914;-78
2021/04/12 09:21:57;;;;;;;;;;;;;;;-142.75;68.37;79705.34;5022891;28;19924;-78
2021/04/12 09:24:42;;;;;;;;;;;;;;;-142.75;68.31;79662.00;5011966;28;20303;-78
2021/04/12 09:27:26;;;;;;;;;;;;;;;-142.75;68.09;79595.00;5010477;28;19917;-78
2021/04/12 09:30:11;;;;;;;;;;;;;;;-142.75;67.09;79524.09;5026545;28;19936;-79
2021/04/12 09:32:48;;;;;;;;;;;;;;;-142.75;67.35;79376.34;5010926;28;20280;-77
2021/04/12 09:35:13;;;;;;;;;;;;;;;-142.75;66.97;79147.84;5008306;28;19963;-78
2021/04/12 09:37:47;;;;;;;;;;;;;;;-142.75;60.56;78915.44;5007396;28;19914;-79
2021/04/12 09:40:31;;;;;;;;;;;;;;;-142.75;55.16;78696.81;5016457;28;19914;-79
2021/04/12 09:43:15;;;;;;;;;;;;;;;-142.75;54.06;78482.13;5006923;28;19991;-78
2021/04/12 09:45:47;;;;;;;;;;;;;;;-142.75;51.68;78302.94;5024648;28;19921;-80
2021/04/12 09:48:31;;;;;;;;;;;;;;;-142.75;48.59;78216.28;5025077;28;19913;-78
2021/04/12 09:51:00;;;;;;;;;;;;;;;-142.75;48.00;78117.81;5011832;28;19917;-80
2021/04/12 09:53:31;;;;;;;;;;;;;;;-142.75;46.99;77999.66;5027395;28;19921;-79
2021/04/12 09:58:38;;;;;;;;;;;;;;;-142.75;44.44;77920.91;5139181;22;19972;-79
2021/04/12 10:01:19;;;;;;;;;;;;;;;-142.75;44.36;77875.59;5107144;27;20002;-77
2021/04/12 10:04:03;;;;;;;;;;;;;;;-142.75;43.72;77818.50;5118682;27;19993;-78
2021/04/12 10:06:37;;;;;;;;;;;;;;;-142.75;41.52;77779.13;5086661;28;19915;-78
2021/04/12 10:09:21;;;;;;;;;;;;;;;-142.75;40.56;77641.28;5090050;28;19919;-78
2021/04/12 10:11:52;;;;;;;;;;;;;;;-142.75;37.27;77743.69;5096652;28;19953;-77
2021/04/12 10:14:30;;;;;;;;;;;;;;;-142.75;41.11;77800.78;5099430;28;19912;-75
2021/04/12 10:17:02;;;;;;;;;;;;;;;-142.75;39.26;77704.28;5097365;28;20274;-77
2021/04/12 10:19:40;;;;;;;;;;;;;;;-142.75;39.83;77757.47;5096644;28;19977;-76
2021/04/12 10:22:10;;;;;;;;;;;;;;;-142.75;38.85;77684.59;5093965;28;20087;-76
2021/04/12 10:24:53;;;;;;;;;;;;;;;-142.75;39.64;77613.72;5092563;28;19912;-78
2021/04/12 10:27:39;;;;;;;;;;;;;;;-142.75;37.16;77597.97;5097940;28;19911;-77
2021/04/12 10:30:04;;;;;;;;;;;;;;;-142.75;37.20;77596.00;5096024;28;19912;-77
2021/04/12 10:32:35;;;;;;;;;;;;;;;-142.75;36.72;77629.47;5088622;28;19926;-79
2021/04/12 10:35:07;;;;;;;;;;;;;;;-142.75;35.13;77763.38;5100536;28;20004;-78
2021/04/12 10:37:32;;;;;;;;;;;;;;;-142.75;38.40;78125.69;5094796;28;20332;-76
2021/04/12 10:40:04;;;;;;;;;;;;;;;-142.75;38.25;78157.19;5100222;28;19912;-77
2021/04/12 10:42:33;;;;;;;;;;;;;;;-142.75;40.24;77956.34;5100989;27;19916;-77
2021/04/12 10:45:04;;;;;;;;;;;;;;;-142.75;39.03;77802.75;5093694;28;19944;-76
2021/04/12 10:47:34;;;;;;;;;;;;;;;-142.75;38.43;77714.13;5067601;28;19920;-78
2021/04/12 10:50:08;;;;;;;;;;;;;;;-142.75;35.20;77680.66;5075784;28;19912;-77
2021/04/12 10:52:53;;;;;;;;;;;;;;;-142.75;37.65;77812.59;5101361;28;19923;-78
2021/04/12 10:55:33;;;;;;;;;;;;;;;-142.75;37.78;77806.69;5101577;28;19911;-78
2021/04/12 10:58:12;;;;;;;;;;;;;;;-142.75;39.50;78198.56;5102969;28;19919;-79
2021/04/12 11:00:56;;;;;;;;;;;;;;;-142.75;42.26;78346.25;5100895;28;19916;-79
2021/04/12 11:03:39;;;;;;;;;;;;;;;-142.75;44.06;78606.22;5097453;28;19923;-79
2021/04/12 11:06:07;;;;;;;;;;;;;;;-142.75;44.68;78704.69;5097570;28;19911;-77
2021/04/12 11:08:51;;;;;;;;;;;;;;;-142.75;46.67;78795.28;5095052;28;20399;-77
2021/04/12 11:11:26;;;;;;;;;;;;;;;-142.75;46.52;78838.63;5101231;28;19912;-77
2021/04/12 11:13:53;;;;;;;;;;;;;;;-142.75;48.45;78937.09;5102691;28;20006;-77
2021/04/12 11:16:23;;;;;;;;;;;;;;;-142.75;47.65;78952.84;5096996;28;19912;-77
2021/04/12 11:19:05;;;;;;;;;;;;;;;-142.75;48.59;78832.72;5099329;28;19923;-77
2021/04/12 11:21:49;;;;;;;;;;;;;;;-142.75;45.39;78803.16;5100093;28;20381;-77
2021/04/12 11:24:33;;;;;;;;;;;;;;;-142.75;45.24;78685.00;5096482;28;19912;-78
2021/04/12 11:27:04;;;;;;;;;;;;;;;-142.75;45.42;78661.34;5098394;28;19954;-77
2021/04/12 11:29:31;;;;;;;;;;;;;;;-142.75;42.76;78641.66;5100855;28;19973;-77
2021/04/12 11:32:09;;;;;;;;;;;;;;;-142.75;44.27;78525.47;5098170;28;19920;-78
2021/04/12 11:34:53;;;;;;;;;;;;;;;-142.75;42.11;78415.19;5099039;28;19923;-76
2021/04/12 11:37:26;;;;;;;;;;;;;;;-142.75;40.06;78399.44;5100769;28;19996;-80
2021/04/12 11:39:57;;;;;;;;;;;;;;;-142.75;41.08;78495.94;5104309;28;19946;-77
2021/04/12 11:42:27;;;;;;;;;;;;;;;-142.75;41.88;78714.53;5100844;28;19947;-77
2021/04/12 11:45:07;;;;;;;;;;;;;;;-142.75;43.30;78761.81;5103169;28;19912;-78
2021/04/12 11:47:51;;;;;;;;;;;;;;;-142.75;43.71;78704.69;5093713;28;19964;-77
2021/04/12 11:50:21;;;;;;;;;;;;;;;-142.75;42.88;78685.00;5097273;28;20374;-79
2021/04/12 11:52:50;;;;;;;;;;;;;;;-142.75;41.75;78681.06;5096151;28;19994;-77
2021/04/12 11:55:24;;;;;;;;;;;;;;;-142.75;43.20;78710.59;5096486;28;19919;-75
2021/04/12 11:58:06;;;;;;;;;;;;;;;-142.75;42.55;78787.41;5092423;28;19912;-79
2021/04/12 12:00:55;;;;;;;;;;;;;;;-142.75;42.64;78844.53;5090969;28;19951;-78
2021/04/12 12:03:32;;;;;;;;;;;;;;;-142.75;43.47;78946.94;5087648;28;19916;-77
2021/04/12 12:06:07;;;;;;;;;;;;;;;-142.75;43.59;79000.13;5095397;28;19991;-78
2021/04/12 12:08:49;;;;;;;;;;;;;;;-142.75;44.44;78966.66;5099065;28;19930;-77
2021/04/12 12:11:17;;;;;;;;;;;;;;;-142.75;43.32;78929.22;5099941;28;19907;-78
2021/04/12 12:13:58;;;;;;;;;;;;;;;-142.75;43.56;78864.22;5105346;28;19923;-78
2021/04/12 12:16:23;;;;;;;;;;;;;;;-142.75;43.11;78830.75;5100273;28;19930;-76
2021/04/12 12:18:52;;;;;;;;;;;;;;;-142.75;43.24;78848.47;5103005;28;20360;-78
2021/04/12 12:21:20;;;;;;;;;;;;;;;-142.75;42.32;78846.50;5105892;28;19924;-78
2021/04/12 12:23:51;;;;;;;;;;;;;;;-142.75;42.17;78866.19;5101420;28;19955;-77
2021/04/12 12:26:36;;;;;;;;;;;;;;;-142.75;43.96;78856.34;5103613;28;19911;-76
2021/04/12 12:29:11;;;;;;;;;;;;;;;-142.75;42.22;78826.81;5082508;28;20353;-76
2021/04/12 12:31:51;;;;;;;;;;;;;;;-142.75;43.29;78809.06;5105443;28;19934;-76
2021/04/12 12:34:30;;;;;;;;;;;;;;;-142.75;43.97;78748.03;5097717;28;19992;-76
2021/04/12 12:36:55;;;;;;;;;;;;;;;-142.75;41.66;78769.69;5099192;28;19908;-76
2021/04/12 12:39:29;;;;;;;;;;;;;;;-142.75;41.22;78830.75;5109542;28;19961;-77
2021/04/12 12:41:59;;;;;;;;;;;;;;;-142.75;44.42;78818.91;5101879;28;19961;-79
2021/04/12 12:44:26;;;;;;;;;;;;;;;-142.75;43.37;78809.06;5111173;28;20360;-76
2021/04/12 12:46:53;;;;;;;;;;;;;;;-142.75;44.00;78811.03;5104521;28;19915;-77
2021/04/12 12:49:25;;;;;;;;;;;;;;;-142.75;43.95;78824.84;5108068;28;19908;-76
2021/04/12 12:51:53;;;;;;;;;;;;;;;-142.75;43.91;78887.84;5105448;28;20006;-76
2021/04/12 12:54:26;;;;;;;;;;;;;;;-142.75;43.81;78931.19;5101586;28;19908;-76
2021/04/12 12:56:59;;;;;;;;;;;;;;;-142.75;43.34;78937.09;5101559;28;19911;-77
2021/04/12 12:59:27;;;;;;;;;;;;;;;-142.75;43.43;78935.13;5100835;28;19908;-77
2021/04/12 13:01:53;;;;;;;;;;;;;;;-142.75;43.50;78901.66;5107837;28;19920;-77
2021/04/12 13:04:23;;;;;;;;;;;;;;;-142.75;44.25;78878.00;5102773;28;20288;-76
2021/04/12 13:06:51;;;;;;;;;;;;;;;-142.75;44.03;78824.84;5105195;28;19933;-78
2021/04/12 13:09:28;;;;;;;;;;;;;;;-142.75;42.14;78846.50;5106820;28;19916;-76
2021/04/12 13:11:56;;;;;;;;;;;;;;;-142.75;42.79;78820.88;5104487;28;20276;-78
2021/04/12 13:14:34;;;;;;;;;;;;;;;-142.75;46.30;78809.06;5105742;28;19911;-78